sensor_id;sensor_type;location;lat;lon;timestamp;P1;durP1;ratioP1;P2;durP2;ratioP2
11665;SDS011;5889;51.350;6.708;2023-05-02T00:00:59;49.20;;;33.70;;
11665;SDS011;5889;51.350;6.708;2023-05-02T00:03:29;52.60;;;35.97;;
11665;SDS011;5889;51.350;6.708;2023-05-02T00:05:56;54.37;;;35.53;;
11665;SDS011;5889;51.350;6.708;2023-05-02T00:08:24;54.50;;;35.70;;
11665;SDS011;5889;51.350;6.708;2023-05-02T00:10:51;61.83;;;38.23;;
11665;SDS011;5889;51.350;6.708;2023-05-02T00:13:17;62.37;;;38.73;;
11665;SDS011;5889;51.350;6.708;2023-05-02T00:15:44;67.03;;;40.63;;
11665;SDS011;5889;51.350;6.708;2023-05-02T00:18:11;70.07;;;44.07;;
11665;SDS011;5889;51.350;6.708;2023-05-02T00:20:38;74.10;;;44.43;;
11665;SDS011;5889;51.350;6.708;2023-05-02T00:23:05;67.90;;;41.27;;
11665;SDS011;5889;51.350;6.708;2023-05-02T00:25:33;71.77;;;42.87;;
11665;SDS011;5889;51.350;6.708;2023-05-02T00:28:00;74.07;;;41.77;;
11665;SDS011;5889;51.350;6.708;2023-05-02T00:30:26;77.97;;;43.17;;
11665;SDS011;5889;51.350;6.708;2023-05-02T00:32:53;75.77;;;42.83;;
11665;SDS011;5889;51.350;6.708;2023-05-02T00:35:20;80.03;;;43.70;;
11665;SDS011;5889;51.350;6.708;2023-05-02T00:37:47;75.87;;;42.30;;
11665;SDS011;5889;51.350;6.708;2023-05-02T00:40:13;88.37;;;44.73;;
11665;SDS011;5889;51.350;6.708;2023-05-02T00:42:41;81.00;;;43.97;;
11665;SDS011;5889;51.350;6.708;2023-05-02T00:45:08;83.23;;;44.80;;
11665;SDS011;5889;51.350;6.708;2023-05-02T00:47:36;85.17;;;44.03;;
11665;SDS011;5889;51.350;6.708;2023-05-02T00:50:03;87.93;;;46.10;;
11665;SDS011;5889;51.350;6.708;2023-05-02T00:52:30;89.67;;;43.63;;
11665;SDS011;5889;51.350;6.708;2023-05-02T00:54:58;83.17;;;44.80;;
11665;SDS011;5889;51.350;6.708;2023-05-02T00:57:26;86.33;;;44.23;;
11665;SDS011;5889;51.350;6.708;2023-05-02T00:59:54;88.83;;;45.10;;
11665;SDS011;5889;51.350;6.708;2023-05-02T01:02:25;85.47;;;45.90;;
11665;SDS011;5889;51.350;6.708;2023-05-02T01:05:04;89.43;;;45.33;;
11665;SDS011;5889;51.350;6.708;2023-05-02T01:07:43;94.00;;;47.97;;
11665;SDS011;5889;51.350;6.708;2023-05-02T01:10:20;93.10;;;47.73;;
11665;SDS011;5889;51.350;6.708;2023-05-02T01:12:57;98.70;;;47.73;;
11665;SDS011;5889;51.350;6.708;2023-05-02T01:15:28;104.17;;;48.00;;
11665;SDS011;5889;51.350;6.708;2023-05-02T01:17:57;97.43;;;48.80;;
11665;SDS011;5889;51.350;6.708;2023-05-02T01:20:27;101.20;;;50.03;;
11665;SDS011;5889;51.350;6.708;2023-05-02T01:22:55;98.00;;;48.33;;
11665;SDS011;5889;51.350;6.708;2023-05-02T01:25:28;96.33;;;46.67;;
11665;SDS011;5889;51.350;6.708;2023-05-02T01:28:04;99.10;;;48.43;;
11665;SDS011;5889;51.350;6.708;2023-05-02T01:30:41;95.10;;;46.67;;
11665;SDS011;5889;51.350;6.708;2023-05-02T01:33:13;112.10;;;55.30;;
11665;SDS011;5889;51.350;6.708;2023-05-02T01:35:41;93.83;;;49.87;;
11665;SDS011;5889;51.350;6.708;2023-05-02T01:38:11;91.77;;;42.17;;
11665;SDS011;5889;51.350;6.708;2023-05-02T01:40:39;89.27;;;44.17;;
11665;SDS011;5889;51.350;6.708;2023-05-02T01:43:09;89.93;;;44.17;;
11665;SDS011;5889;51.350;6.708;2023-05-02T01:45:37;88.10;;;43.77;;
11665;SDS011;5889;51.350;6.708;2023-05-02T01:48:07;91.90;;;42.23;;
11665;SDS011;5889;51.350;6.708;2023-05-02T01:50:35;94.63;;;47.93;;
11665;SDS011;5889;51.350;6.708;2023-05-02T01:53:04;84.13;;;45.23;;
11665;SDS011;5889;51.350;6.708;2023-05-02T01:55:33;96.53;;;49.67;;
11665;SDS011;5889;51.350;6.708;2023-05-02T01:58:01;99.43;;;48.37;;
11665;SDS011;5889;51.350;6.708;2023-05-02T02:00:29;103.63;;;53.43;;
11665;SDS011;5889;51.350;6.708;2023-05-02T02:02:58;104.33;;;54.00;;
11665;SDS011;5889;51.350;6.708;2023-05-02T02:05:27;105.27;;;51.87;;
11665;SDS011;5889;51.350;6.708;2023-05-02T02:07:54;97.73;;;51.93;;
11665;SDS011;5889;51.350;6.708;2023-05-02T02:10:22;88.37;;;48.70;;
11665;SDS011;5889;51.350;6.708;2023-05-02T02:12:52;88.77;;;46.00;;
11665;SDS011;5889;51.350;6.708;2023-05-02T02:15:26;81.57;;;42.03;;
11665;SDS011;5889;51.350;6.708;2023-05-02T02:17:56;90.17;;;46.73;;
11665;SDS011;5889;51.350;6.708;2023-05-02T02:20:25;91.23;;;48.43;;
11665;SDS011;5889;51.350;6.708;2023-05-02T02:22:54;99.60;;;51.90;;
11665;SDS011;5889;51.350;6.708;2023-05-02T02:25:22;107.07;;;53.90;;
11665;SDS011;5889;51.350;6.708;2023-05-02T02:27:51;83.53;;;42.10;;
11665;SDS011;5889;51.350;6.708;2023-05-02T02:30:17;90.60;;;47.70;;
11665;SDS011;5889;51.350;6.708;2023-05-02T02:32:44;86.40;;;43.87;;
11665;SDS011;5889;51.350;6.708;2023-05-02T02:35:11;81.33;;;40.83;;
11665;SDS011;5889;51.350;6.708;2023-05-02T02:37:38;72.03;;;36.73;;
11665;SDS011;5889;51.350;6.708;2023-05-02T02:40:14;69.77;;;35.87;;
11665;SDS011;5889;51.350;6.708;2023-05-02T02:42:51;68.80;;;35.37;;
11665;SDS011;5889;51.350;6.708;2023-05-02T02:45:30;74.80;;;40.17;;
11665;SDS011;5889;51.350;6.708;2023-05-02T02:48:06;65.10;;;36.13;;
11665;SDS011;5889;51.350;6.708;2023-05-02T02:50:45;62.87;;;33.13;;
11665;SDS011;5889;51.350;6.708;2023-05-02T02:53:24;57.17;;;33.73;;
11665;SDS011;5889;51.350;6.708;2023-05-02T02:55:59;56.20;;;31.70;;
11665;SDS011;5889;51.350;6.708;2023-05-02T02:58:30;54.60;;;28.20;;
11665;SDS011;5889;51.350;6.708;2023-05-02T03:01:05;49.70;;;26.27;;
11665;SDS011;5889;51.350;6.708;2023-05-02T03:03:40;48.00;;;27.33;;
11665;SDS011;5889;51.350;6.708;2023-05-02T03:06:08;48.27;;;26.13;;
11665;SDS011;5889;51.350;6.708;2023-05-02T03:08:38;46.47;;;26.97;;
11665;SDS011;5889;51.350;6.708;2023-05-02T03:11:06;39.43;;;23.67;;
11665;SDS011;5889;51.350;6.708;2023-05-02T03:13:33;43.83;;;25.13;;
11665;SDS011;5889;51.350;6.708;2023-05-02T03:16:09;43.80;;;24.57;;
11665;SDS011;5889;51.350;6.708;2023-05-02T03:18:55;35.93;;;19.60;;
11665;SDS011;5889;51.350;6.708;2023-05-02T03:21:22;33.50;;;19.97;;
11665;SDS011;5889;51.350;6.708;2023-05-02T03:23:48;36.40;;;20.33;;
11665;SDS011;5889;51.350;6.708;2023-05-02T03:26:16;34.27;;;19.53;;
11665;SDS011;5889;51.350;6.708;2023-05-02T03:28:43;37.07;;;24.60;;
11665;SDS011;5889;51.350;6.708;2023-05-02T03:31:11;36.03;;;22.47;;
11665;SDS011;5889;51.350;6.708;2023-05-02T03:33:38;39.83;;;26.37;;
11665;SDS011;5889;51.350;6.708;2023-05-02T03:36:05;43.80;;;29.27;;
11665;SDS011;5889;51.350;6.708;2023-05-02T03:38:32;50.33;;;29.63;;
11665;SDS011;5889;51.350;6.708;2023-05-02T03:40:59;37.20;;;20.37;;
11665;SDS011;5889;51.350;6.708;2023-05-02T03:43:28;33.53;;;19.57;;
11665;SDS011;5889;51.350;6.708;2023-05-02T03:45:55;30.90;;;17.03;;
11665;SDS011;5889;51.350;6.708;2023-05-02T03:48:22;28.23;;;15.27;;
11665;SDS011;5889;51.350;6.708;2023-05-02T03:50:49;31.00;;;15.40;;
11665;SDS011;5889;51.350;6.708;2023-05-02T03:53:16;30.23;;;17.90;;
11665;SDS011;5889;51.350;6.708;2023-05-02T03:55:43;28.30;;;14.77;;
11665;SDS011;5889;51.350;6.708;2023-05-02T03:58:10;26.37;;;14.60;;
11665;SDS011;5889;51.350;6.708;2023-05-02T04:00:38;30.80;;;16.53;;
11665;SDS011;5889;51.350;6.708;2023-05-02T04:03:05;32.00;;;17.47;;
11665;SDS011;5889;51.350;6.708;2023-05-02T04:05:32;29.83;;;17.27;;
11665;SDS011;5889;51.350;6.708;2023-05-02T04:07:59;34.40;;;17.83;;
11665;SDS011;5889;51.350;6.708;2023-05-02T04:10:27;35.00;;;18.63;;
11665;SDS011;5889;51.350;6.708;2023-05-02T04:12:54;38.20;;;18.43;;
11665;SDS011;5889;51.350;6.708;2023-05-02T04:15:20;34.50;;;20.33;;
11665;SDS011;5889;51.350;6.708;2023-05-02T04:17:48;34.60;;;19.50;;
11665;SDS011;5889;51.350;6.708;2023-05-02T04:20:15;40.30;;;21.53;;
11665;SDS011;5889;51.350;6.708;2023-05-02T04:22:42;44.83;;;21.57;;
11665;SDS011;5889;51.350;6.708;2023-05-02T04:25:10;38.20;;;19.80;;
11665;SDS011;5889;51.350;6.708;2023-05-02T04:27:37;39.67;;;21.67;;
11665;SDS011;5889;51.350;6.708;2023-05-02T04:30:04;40.40;;;20.47;;
11665;SDS011;5889;51.350;6.708;2023-05-02T04:32:32;41.17;;;21.60;;
11665;SDS011;5889;51.350;6.708;2023-05-02T04:35:00;44.90;;;22.10;;
11665;SDS011;5889;51.350;6.708;2023-05-02T04:37:27;37.63;;;21.17;;
11665;SDS011;5889;51.350;6.708;2023-05-02T04:39:53;41.30;;;21.17;;
11665;SDS011;5889;51.350;6.708;2023-05-02T04:42:20;42.77;;;22.60;;
11665;SDS011;5889;51.350;6.708;2023-05-02T04:44:47;46.57;;;22.43;;
11665;SDS011;5889;51.350;6.708;2023-05-02T04:47:14;50.80;;;25.17;;
11665;SDS011;5889;51.350;6.708;2023-05-02T04:49:41;52.00;;;25.73;;
11665;SDS011;5889;51.350;6.708;2023-05-02T04:52:09;50.03;;;25.77;;
11665;SDS011;5889;51.350;6.708;2023-05-02T04:54:36;49.50;;;25.37;;
11665;SDS011;5889;51.350;6.708;2023-05-02T04:57:03;50.37;;;25.23;;
11665;SDS011;5889;51.350;6.708;2023-05-02T04:59:31;59.17;;;26.63;;
11665;SDS011;5889;51.350;6.708;2023-05-02T05:01:59;59.60;;;26.97;;
11665;SDS011;5889;51.350;6.708;2023-05-02T05:04:26;53.63;;;27.27;;
11665;SDS011;5889;51.350;6.708;2023-05-02T05:06:53;60.63;;;28.80;;
11665;SDS011;5889;51.350;6.708;2023-05-02T05:09:21;61.77;;;29.07;;
11665;SDS011;5889;51.350;6.708;2023-05-02T05:11:47;65.57;;;33.37;;
11665;SDS011;5889;51.350;6.708;2023-05-02T05:14:14;68.73;;;39.93;;
11665;SDS011;5889;51.350;6.708;2023-05-02T05:16:41;53.87;;;30.20;;
11665;SDS011;5889;51.350;6.708;2023-05-02T05:19:08;48.33;;;28.87;;
11665;SDS011;5889;51.350;6.708;2023-05-02T05:21:35;52.70;;;25.83;;
11665;SDS011;5889;51.350;6.708;2023-05-02T05:24:01;29.47;;;16.60;;
11665;SDS011;5889;51.350;6.708;2023-05-02T05:26:31;25.93;;;14.67;;
11665;SDS011;5889;51.350;6.708;2023-05-02T05:28:57;22.83;;;13.83;;
11665;SDS011;5889;51.350;6.708;2023-05-02T05:31:24;19.10;;;12.50;;
11665;SDS011;5889;51.350;6.708;2023-05-02T05:33:51;18.23;;;10.77;;
11665;SDS011;5889;51.350;6.708;2023-05-02T05:36:17;15.93;;;9.47;;
11665;SDS011;5889;51.350;6.708;2023-05-02T05:38:44;17.07;;;10.10;;
11665;SDS011;5889;51.350;6.708;2023-05-02T05:41:11;14.57;;;8.97;;
11665;SDS011;5889;51.350;6.708;2023-05-02T05:43:39;17.70;;;9.30;;
11665;SDS011;5889;51.350;6.708;2023-05-02T05:46:06;15.50;;;9.00;;
11665;SDS011;5889;51.350;6.708;2023-05-02T05:48:33;13.13;;;9.10;;
11665;SDS011;5889;51.350;6.708;2023-05-02T05:51:02;17.40;;;9.63;;
11665;SDS011;5889;51.350;6.708;2023-05-02T05:53:29;14.23;;;8.37;;
11665;SDS011;5889;51.350;6.708;2023-05-02T05:56:33;14.90;;;8.80;;
11665;SDS011;5889;51.350;6.708;2023-05-02T05:59:24;14.00;;;8.53;;
11665;SDS011;5889;51.350;6.708;2023-05-02T06:01:53;16.17;;;8.63;;
11665;SDS011;5889;51.350;6.708;2023-05-02T06:04:23;12.80;;;8.43;;
11665;SDS011;5889;51.350;6.708;2023-05-02T06:06:51;15.00;;;8.60;;
11665;SDS011;5889;51.350;6.708;2023-05-02T06:09:19;18.07;;;7.83;;
11665;SDS011;5889;51.350;6.708;2023-05-02T06:11:46;19.30;;;8.40;;
11665;SDS011;5889;51.350;6.708;2023-05-02T06:14:13;12.87;;;7.07;;
11665;SDS011;5889;51.350;6.708;2023-05-02T06:16:56;16.00;;;7.10;;
11665;SDS011;5889;51.350;6.708;2023-05-02T06:26:11;13.47;;;5.87;;
11665;SDS011;5889;51.350;6.708;2023-05-02T06:28:43;12.10;;;5.57;;
11665;SDS011;5889;51.350;6.708;2023-05-02T06:31:11;9.97;;;5.20;;
11665;SDS011;5889;51.350;6.708;2023-05-02T06:34:24;13.90;;;5.17;;
11665;SDS011;5889;51.350;6.708;2023-05-02T06:41:11;13.27;;;6.13;;
11665;SDS011;5889;51.350;6.708;2023-05-02T06:46:49;10.97;;;5.60;;
11665;SDS011;5889;51.350;6.708;2023-05-02T06:49:18;12.10;;;5.10;;
11665;SDS011;5889;51.350;6.708;2023-05-02T06:51:46;15.60;;;5.47;;
11665;SDS011;5889;51.350;6.708;2023-05-02T06:54:16;10.83;;;5.40;;
11665;SDS011;5889;51.350;6.708;2023-05-02T06:56:46;11.70;;;4.67;;
11665;SDS011;5889;51.350;6.708;2023-05-02T10:32:44;11.37;;;4.33;;
11665;SDS011;5889;51.350;6.708;2023-05-02T10:35:13;12.13;;;4.60;;
11665;SDS011;5889;51.350;6.708;2023-05-02T10:37:41;11.63;;;4.17;;
11665;SDS011;5889;51.350;6.708;2023-05-02T10:40:12;12.13;;;4.00;;
11665;SDS011;5889;51.350;6.708;2023-05-02T10:42:41;11.83;;;3.80;;
11665;SDS011;5889;51.350;6.708;2023-05-02T10:45:12;12.93;;;4.67;;
11665;SDS011;5889;51.350;6.708;2023-05-02T10:50:44;11.77;;;3.67;;
11665;SDS011;5889;51.350;6.708;2023-05-02T10:53:31;9.87;;;3.43;;
11665;SDS011;5889;51.350;6.708;2023-05-02T10:56:13;8.33;;;3.00;;
11665;SDS011;5889;51.350;6.708;2023-05-02T10:58:42;6.83;;;3.17;;
11665;SDS011;5889;51.350;6.708;2023-05-02T11:04:03;11.53;;;3.50;;
11665;SDS011;5889;51.350;6.708;2023-05-02T11:06:31;11.37;;;4.53;;
11665;SDS011;5889;51.350;6.708;2023-05-02T11:11:56;11.27;;;4.20;;
11665;SDS011;5889;51.350;6.708;2023-05-02T11:17:17;11.80;;;4.03;;
11665;SDS011;5889;51.350;6.708;2023-05-02T11:22:48;12.50;;;4.37;;
11665;SDS011;5889;51.350;6.708;2023-05-02T11:25:38;10.03;;;3.20;;
11665;SDS011;5889;51.350;6.708;2023-05-02T11:28:42;8.63;;;3.30;;
11665;SDS011;5889;51.350;6.708;2023-05-02T11:34:49;8.10;;;3.27;;
11665;SDS011;5889;51.350;6.708;2023-05-02T11:41:14;9.63;;;2.80;;
11665;SDS011;5889;51.350;6.708;2023-05-02T11:44:01;7.97;;;3.40;;
11665;SDS011;5889;51.350;6.708;2023-05-02T11:46:29;13.53;;;4.83;;
11665;SDS011;5889;51.350;6.708;2023-05-02T11:48:56;11.07;;;4.70;;
11665;SDS011;5889;51.350;6.708;2023-05-02T11:51:23;10.10;;;3.30;;
11665;SDS011;5889;51.350;6.708;2023-05-02T11:53:51;9.03;;;3.10;;
11665;SDS011;5889;51.350;6.708;2023-05-02T11:56:22;8.30;;;3.27;;
11665;SDS011;5889;51.350;6.708;2023-05-02T11:58:56;13.50;;;3.40;;
11665;SDS011;5889;51.350;6.708;2023-05-02T12:01:24;6.67;;;2.80;;
11665;SDS011;5889;51.350;6.708;2023-05-02T12:03:59;7.10;;;3.20;;
11665;SDS011;5889;51.350;6.708;2023-05-02T12:06:27;10.33;;;3.20;;
11665;SDS011;5889;51.350;6.708;2023-05-02T12:09:06;6.93;;;3.47;;
11665;SDS011;5889;51.350;6.708;2023-05-02T12:11:34;8.53;;;3.03;;
11665;SDS011;5889;51.350;6.708;2023-05-02T12:14:02;7.03;;;3.00;;
11665;SDS011;5889;51.350;6.708;2023-05-02T12:16:30;8.33;;;3.07;;
11665;SDS011;5889;51.350;6.708;2023-05-02T12:18:58;6.37;;;3.70;;
11665;SDS011;5889;51.350;6.708;2023-05-02T12:21:25;7.23;;;3.27;;
11665;SDS011;5889;51.350;6.708;2023-05-02T12:23:54;4.47;;;2.53;;
11665;SDS011;5889;51.350;6.708;2023-05-02T12:26:24;7.90;;;3.10;;
11665;SDS011;5889;51.350;6.708;2023-05-02T12:28:53;7.77;;;3.07;;
11665;SDS011;5889;51.350;6.708;2023-05-02T12:31:22;6.87;;;2.67;;
11665;SDS011;5889;51.350;6.708;2023-05-02T12:33:50;6.43;;;3.07;;
11665;SDS011;5889;51.350;6.708;2023-05-02T12:36:21;6.87;;;2.77;;
11665;SDS011;5889;51.350;6.708;2023-05-02T12:38:48;7.93;;;3.20;;
11665;SDS011;5889;51.350;6.708;2023-05-02T12:41:17;6.80;;;2.80;;
11665;SDS011;5889;51.350;6.708;2023-05-02T12:43:46;6.13;;;2.57;;
11665;SDS011;5889;51.350;6.708;2023-05-02T12:46:15;8.20;;;2.90;;
11665;SDS011;5889;51.350;6.708;2023-05-02T12:48:42;12.60;;;4.87;;
11665;SDS011;5889;51.350;6.708;2023-05-02T12:51:19;9.70;;;3.77;;
11665;SDS011;5889;51.350;6.708;2023-05-02T12:53:47;7.00;;;3.07;;
11665;SDS011;5889;51.350;6.708;2023-05-02T12:56:14;10.57;;;2.90;;
11665;SDS011;5889;51.350;6.708;2023-05-02T12:58:42;7.33;;;3.90;;
11665;SDS011;5889;51.350;6.708;2023-05-02T13:01:12;11.97;;;5.00;;
11665;SDS011;5889;51.350;6.708;2023-05-02T13:03:41;9.53;;;3.57;;
11665;SDS011;5889;51.350;6.708;2023-05-02T13:06:10;7.50;;;3.50;;
11665;SDS011;5889;51.350;6.708;2023-05-02T13:08:37;6.47;;;3.20;;
11665;SDS011;5889;51.350;6.708;2023-05-02T13:11:04;6.70;;;2.93;;
11665;SDS011;5889;51.350;6.708;2023-05-02T13:13:31;9.40;;;3.07;;
11665;SDS011;5889;51.350;6.708;2023-05-02T13:15:59;5.13;;;3.23;;
11665;SDS011;5889;51.350;6.708;2023-05-02T13:18:27;7.67;;;2.93;;
11665;SDS011;5889;51.350;6.708;2023-05-02T13:20:54;11.40;;;2.90;;
11665;SDS011;5889;51.350;6.708;2023-05-02T13:23:21;5.47;;;3.43;;
11665;SDS011;5889;51.350;6.708;2023-05-02T13:25:48;6.97;;;3.07;;
11665;SDS011;5889;51.350;6.708;2023-05-02T13:28:15;5.43;;;3.10;;
11665;SDS011;5889;51.350;6.708;2023-05-02T13:30:43;6.80;;;3.73;;
11665;SDS011;5889;51.350;6.708;2023-05-02T13:33:09;6.77;;;3.17;;
11665;SDS011;5889;51.350;6.708;2023-05-02T13:35:38;9.63;;;3.90;;
11665;SDS011;5889;51.350;6.708;2023-05-02T13:38:05;5.77;;;3.13;;
11665;SDS011;5889;51.350;6.708;2023-05-02T13:40:32;6.80;;;3.20;;
11665;SDS011;5889;51.350;6.708;2023-05-02T13:42:59;11.53;;;3.70;;
11665;SDS011;5889;51.350;6.708;2023-05-02T13:45:26;6.73;;;3.30;;
11665;SDS011;5889;51.350;6.708;2023-05-02T13:47:53;7.57;;;4.00;;
11665;SDS011;5889;51.350;6.708;2023-05-02T13:50:20;5.77;;;3.63;;
11665;SDS011;5889;51.350;6.708;2023-05-02T13:52:48;7.73;;;4.30;;
11665;SDS011;5889;51.350;6.708;2023-05-02T13:55:15;10.27;;;3.50;;
11665;SDS011;5889;51.350;6.708;2023-05-02T13:57:42;7.67;;;3.90;;
11665;SDS011;5889;51.350;6.708;2023-05-02T14:00:10;7.93;;;4.17;;
11665;SDS011;5889;51.350;6.708;2023-05-02T14:02:37;9.93;;;3.80;;
11665;SDS011;5889;51.350;6.708;2023-05-02T14:05:05;9.20;;;3.77;;
11665;SDS011;5889;51.350;6.708;2023-05-02T14:07:32;8.10;;;4.10;;
11665;SDS011;5889;51.350;6.708;2023-05-02T14:10:01;7.73;;;3.80;;
11665;SDS011;5889;51.350;6.708;2023-05-02T14:12:28;10.10;;;3.30;;
11665;SDS011;5889;51.350;6.708;2023-05-02T14:14:55;7.20;;;3.97;;
11665;SDS011;5889;51.350;6.708;2023-05-02T14:17:22;7.90;;;4.13;;
11665;SDS011;5889;51.350;6.708;2023-05-02T14:19:50;7.93;;;3.97;;
11665;SDS011;5889;51.350;6.708;2023-05-02T14:22:17;5.70;;;3.73;;
11665;SDS011;5889;51.350;6.708;2023-05-02T14:24:47;8.17;;;4.10;;
11665;SDS011;5889;51.350;6.708;2023-05-02T14:27:15;8.20;;;4.00;;
11665;SDS011;5889;51.350;6.708;2023-05-02T14:29:43;8.90;;;3.40;;
11665;SDS011;5889;51.350;6.708;2023-05-02T14:32:10;10.03;;;3.80;;
11665;SDS011;5889;51.350;6.708;2023-05-02T14:34:37;10.60;;;4.03;;
11665;SDS011;5889;51.350;6.708;2023-05-02T14:37:04;8.07;;;3.80;;
11665;SDS011;5889;51.350;6.708;2023-05-02T14:39:32;6.70;;;3.20;;
11665;SDS011;5889;51.350;6.708;2023-05-02T14:42:00;10.70;;;3.87;;
11665;SDS011;5889;51.350;6.708;2023-05-02T14:44:28;10.40;;;4.27;;
11665;SDS011;5889;51.350;6.708;2023-05-02T14:46:55;7.60;;;3.60;;
11665;SDS011;5889;51.350;6.708;2023-05-02T14:49:23;8.97;;;3.70;;
11665;SDS011;5889;51.350;6.708;2023-05-02T14:51:50;6.23;;;4.00;;
11665;SDS011;5889;51.350;6.708;2023-05-02T14:54:17;11.07;;;4.23;;
11665;SDS011;5889;51.350;6.708;2023-05-02T14:56:44;9.50;;;4.17;;
11665;SDS011;5889;51.350;6.708;2023-05-02T14:59:12;9.80;;;3.97;;
11665;SDS011;5889;51.350;6.708;2023-05-02T15:01:40;10.17;;;3.97;;
11665;SDS011;5889;51.350;6.708;2023-05-02T15:04:07;11.20;;;4.00;;
11665;SDS011;5889;51.350;6.708;2023-05-02T15:06:34;9.17;;;4.00;;
11665;SDS011;5889;51.350;6.708;2023-05-02T15:09:01;7.77;;;3.80;;
11665;SDS011;5889;51.350;6.708;2023-05-02T15:11:28;12.00;;;4.23;;
11665;SDS011;5889;51.350;6.708;2023-05-02T15:13:55;7.13;;;3.80;;
11665;SDS011;5889;51.350;6.708;2023-05-02T15:16:23;11.00;;;3.97;;
11665;SDS011;5889;51.350;6.708;2023-05-02T15:18:52;7.33;;;3.70;;
11665;SDS011;5889;51.350;6.708;2023-05-02T15:21:19;10.03;;;3.67;;
11665;SDS011;5889;51.350;6.708;2023-05-02T15:23:46;8.57;;;4.03;;
11665;SDS011;5889;51.350;6.708;2023-05-02T15:26:13;10.43;;;4.03;;
11665;SDS011;5889;51.350;6.708;2023-05-02T15:28:40;10.07;;;3.93;;
11665;SDS011;5889;51.350;6.708;2023-05-02T15:31:07;10.13;;;3.70;;
11665;SDS011;5889;51.350;6.708;2023-05-02T15:33:34;10.63;;;4.47;;
11665;SDS011;5889;51.350;6.708;2023-05-02T15:36:02;8.80;;;4.00;;
11665;SDS011;5889;51.350;6.708;2023-05-02T15:38:29;8.20;;;4.57;;
11665;SDS011;5889;51.350;6.708;2023-05-02T15:40:58;10.50;;;4.27;;
11665;SDS011;5889;51.350;6.708;2023-05-02T15:43:25;8.27;;;4.50;;
11665;SDS011;5889;51.350;6.708;2023-05-02T15:45:53;9.10;;;3.87;;
11665;SDS011;5889;51.350;6.708;2023-05-02T15:48:21;14.07;;;5.27;;
11665;SDS011;5889;51.350;6.708;2023-05-02T15:50:48;9.47;;;4.20;;
11665;SDS011;5889;51.350;6.708;2023-05-02T15:53:18;11.80;;;4.77;;
11665;SDS011;5889;51.350;6.708;2023-05-02T15:55:46;14.43;;;5.10;;
11665;SDS011;5889;51.350;6.708;2023-05-02T15:58:13;7.77;;;4.30;;
11665;SDS011;5889;51.350;6.708;2023-05-02T16:00:41;13.97;;;4.80;;
11665;SDS011;5889;51.350;6.708;2023-05-02T16:03:08;14.10;;;4.30;;
11665;SDS011;5889;51.350;6.708;2023-05-02T16:05:39;14.53;;;5.83;;
11665;SDS011;5889;51.350;6.708;2023-05-02T16:08:06;9.47;;;4.47;;
11665;SDS011;5889;51.350;6.708;2023-05-02T16:10:37;11.30;;;4.67;;
11665;SDS011;5889;51.350;6.708;2023-05-02T16:13:08;13.70;;;5.40;;
11665;SDS011;5889;51.350;6.708;2023-05-02T16:24:00;17.30;;;5.57;;
11665;SDS011;5889;51.350;6.708;2023-05-02T16:26:28;13.20;;;5.30;;
11665;SDS011;5889;51.350;6.708;2023-05-02T16:28:58;14.77;;;5.70;;
11665;SDS011;5889;51.350;6.708;2023-05-02T16:31:25;11.10;;;4.80;;
11665;SDS011;5889;51.350;6.708;2023-05-02T16:33:53;8.17;;;4.43;;
11665;SDS011;5889;51.350;6.708;2023-05-02T16:36:20;10.27;;;4.70;;
11665;SDS011;5889;51.350;6.708;2023-05-02T16:39:12;11.50;;;4.30;;
11665;SDS011;5889;51.350;6.708;2023-05-02T16:41:41;9.23;;;4.40;;
11665;SDS011;5889;51.350;6.708;2023-05-02T16:44:09;10.40;;;4.27;;
11665;SDS011;5889;51.350;6.708;2023-05-02T16:46:36;12.33;;;4.70;;
11665;SDS011;5889;51.350;6.708;2023-05-02T16:49:02;11.77;;;4.50;;
11665;SDS011;5889;51.350;6.708;2023-05-02T16:51:30;15.83;;;4.83;;
11665;SDS011;5889;51.350;6.708;2023-05-02T16:53:57;14.43;;;5.77;;
11665;SDS011;5889;51.350;6.708;2023-05-02T16:56:25;13.37;;;4.17;;
11665;SDS011;5889;51.350;6.708;2023-05-02T16:58:53;8.60;;;4.13;;
11665;SDS011;5889;51.350;6.708;2023-05-02T17:01:20;13.73;;;4.80;;
11665;SDS011;5889;51.350;6.708;2023-05-02T17:03:48;17.90;;;4.77;;
11665;SDS011;5889;51.350;6.708;2023-05-02T17:06:22;12.37;;;3.80;;
11665;SDS011;5889;51.350;6.708;2023-05-02T17:08:49;8.13;;;4.50;;
11665;SDS011;5889;51.350;6.708;2023-05-02T17:11:16;11.60;;;4.37;;
11665;SDS011;5889;51.350;6.708;2023-05-02T17:13:43;8.90;;;3.90;;
11665;SDS011;5889;51.350;6.708;2023-05-02T17:16:12;8.97;;;3.63;;
11665;SDS011;5889;51.350;6.708;2023-05-02T17:18:39;11.33;;;4.20;;
11665;SDS011;5889;51.350;6.708;2023-05-02T17:21:06;9.53;;;4.00;;
11665;SDS011;5889;51.350;6.708;2023-05-02T17:23:33;8.77;;;4.00;;
11665;SDS011;5889;51.350;6.708;2023-05-02T17:26:00;7.57;;;4.20;;
11665;SDS011;5889;51.350;6.708;2023-05-02T17:28:28;10.00;;;3.90;;
11665;SDS011;5889;51.350;6.708;2023-05-02T17:30:55;11.77;;;5.13;;
11665;SDS011;5889;51.350;6.708;2023-05-02T17:33:24;10.17;;;4.73;;
11665;SDS011;5889;51.350;6.708;2023-05-02T17:35:51;9.10;;;4.57;;
11665;SDS011;5889;51.350;6.708;2023-05-02T17:38:18;10.90;;;4.23;;
11665;SDS011;5889;51.350;6.708;2023-05-02T17:40:45;8.80;;;4.20;;
11665;SDS011;5889;51.350;6.708;2023-05-02T17:43:12;9.57;;;4.13;;
11665;SDS011;5889;51.350;6.708;2023-05-02T17:45:40;10.43;;;4.30;;
11665;SDS011;5889;51.350;6.708;2023-05-02T17:48:07;9.07;;;4.17;;
11665;SDS011;5889;51.350;6.708;2023-05-02T17:50:38;9.83;;;5.23;;
11665;SDS011;5889;51.350;6.708;2023-05-02T17:53:05;11.23;;;4.67;;
11665;SDS011;5889;51.350;6.708;2023-05-02T17:55:34;7.67;;;4.50;;
11665;SDS011;5889;51.350;6.708;2023-05-02T17:58:02;8.90;;;4.57;;
11665;SDS011;5889;51.350;6.708;2023-05-02T18:00:29;8.10;;;4.43;;
11665;SDS011;5889;51.350;6.708;2023-05-02T18:02:56;9.53;;;4.20;;
11665;SDS011;5889;51.350;6.708;2023-05-02T18:05:23;9.80;;;4.50;;
11665;SDS011;5889;51.350;6.708;2023-05-02T18:07:52;11.07;;;5.20;;
11665;SDS011;5889;51.350;6.708;2023-05-02T18:10:19;9.00;;;4.10;;
11665;SDS011;5889;51.350;6.708;2023-05-02T18:12:46;9.53;;;4.47;;
11665;SDS011;5889;51.350;6.708;2023-05-02T18:15:13;8.70;;;4.57;;
11665;SDS011;5889;51.350;6.708;2023-05-02T18:17:40;10.23;;;4.40;;
11665;SDS011;5889;51.350;6.708;2023-05-02T18:20:07;9.50;;;4.97;;
11665;SDS011;5889;51.350;6.708;2023-05-02T18:22:35;11.80;;;4.57;;
11665;SDS011;5889;51.350;6.708;2023-05-02T18:25:03;7.90;;;3.67;;
11665;SDS011;5889;51.350;6.708;2023-05-02T18:27:31;12.17;;;4.60;;
11665;SDS011;5889;51.350;6.708;2023-05-02T18:29:57;9.77;;;3.83;;
11665;SDS011;5889;51.350;6.708;2023-05-02T18:32:25;14.70;;;4.00;;
11665;SDS011;5889;51.350;6.708;2023-05-02T18:34:53;8.60;;;3.97;;
11665;SDS011;5889;51.350;6.708;2023-05-02T18:37:20;13.37;;;4.20;;
11665;SDS011;5889;51.350;6.708;2023-05-02T18:39:55;13.43;;;4.57;;
11665;SDS011;5889;51.350;6.708;2023-05-02T18:42:23;16.10;;;6.13;;
11665;SDS011;5889;51.350;6.708;2023-05-02T18:44:50;15.90;;;5.80;;
11665;SDS011;5889;51.350;6.708;2023-05-02T18:47:20;10.87;;;4.87;;
11665;SDS011;5889;51.350;6.708;2023-05-02T18:49:48;12.53;;;5.20;;
11665;SDS011;5889;51.350;6.708;2023-05-02T18:52:15;15.57;;;5.30;;
11665;SDS011;5889;51.350;6.708;2023-05-02T18:54:43;10.90;;;4.10;;
11665;SDS011;5889;51.350;6.708;2023-05-02T18:57:09;11.23;;;4.30;;
11665;SDS011;5889;51.350;6.708;2023-05-02T18:59:38;15.60;;;4.50;;
11665;SDS011;5889;51.350;6.708;2023-05-02T19:02:05;9.33;;;4.00;;
11665;SDS011;5889;51.350;6.708;2023-05-02T19:04:32;8.83;;;3.90;;
11665;SDS011;5889;51.350;6.708;2023-05-02T19:06:59;10.53;;;4.43;;
11665;SDS011;5889;51.350;6.708;2023-05-02T19:09:26;10.60;;;4.40;;
11665;SDS011;5889;51.350;6.708;2023-05-02T19:11:55;9.47;;;4.40;;
11665;SDS011;5889;51.350;6.708;2023-05-02T19:14:22;7.57;;;3.50;;